WEATHER DATA

TODAY
Time Temp. Dewp. Hum. Bar.
00:08 15.6 11 74 1026.4
00:18 15.6 11 74 1026.3
00:28 15.6 11.2 75 1026.2
00:38 15.6 11.2 75 1026.3
00:48 15.6 11.2 75 1026.4
00:58 15.6 11 74 1026.4
01:09 15.6 11 74 1026.4
01:19 15.7 11.1 74 1026.3
01:28 15.7 11.1 74 1026.2
01:39 15.7 11.1 74 1026.3
01:49 15.7 11.1 74 1026.2
01:59 15.7 11.1 74 1026.1
02:09 15.7 11.1 74 1026.1
02:19 15.6 11 74 1026.1
02:30 15.6 11 74 1026
02:40 15.6 11 74 1026.1
02:49 15.6 11 74 1026
03:00 15.6 11 74 1025.9
03:10 15.5 10.9 74 1025.9
03:20 15.5 10.9 74 1025.8
03:30 15.5 10.9 74 1025.8
03:40 15.4 10.8 74 1025.8
03:50 15.4 10.8 74 1025.7
04:00 15.4 10.8 74 1025.7
04:11 15.4 10.8 74 1025.7
04:21 15.4 10.8 74 1025.7
04:41 15.4 10.8 74 1025.6
04:51 15.4 10.8 74 1025.5
05:01 15.4 10.8 74 1025.5
05:11 15.4 10.8 74 1025.5
05:22 15.4 10.8 74 1025.4
05:31 15.4 10.8 74 1025.3
05:41 15.4 10.8 74 1025.2
05:51 15.3 10.7 74 1025.2
06:02 15.3 10.7 74 1025.2
06:12 15.3 10.7 74 1025.2
06:22 15.4 10.8 74 1025.2
06:32 15.3 10.7 74 1025.2
06:42 15.3 10.7 74 1025.1
06:52 15.3 10.7 74 1025.1
07:27 15.5 10.9 74 1025.4
08:00 15.3 10.7 74 1025.7
08:10 15.3 10.7 74 1025.8
08:19 15.3 10.7 74 1025.7
08:33 15.3 10.7 74 1025.8
08:43 15.3 10.7 74 1025.9
08:53 15.3 10.9 75 1025.9
09:03 15.3 10.9 75 1026.1
09:13 15.3 10.9 75 1026.2
09:23 15.4 11 75 1026.2
09:34 15.4 11.2 76 1026.3
09:44 15.4 11.2 76 1026.4
09:53 15.4 11.2 76 1026.5
10:04 15.8 12 78 1026.7
10:14 16.1 12.3 78 1026.8
10:24 16.3 12.3 77 1026.9
10:34 16.5 12.8 79 1026.9
10:46 16.8 13.3 80 1027
10:57 16.7 12.8 78 1027
11:07 16.5 12.5 77 1027
11:17 16.4 12.4 77 1026.9
11:27 16.4 12.4 77 1027.1
11:38 16.4 12.4 77 1027.1
11:47 16.4 12.6 78 1027
11:57 16.4 12.4 77 1026.9
12:08 16.4 12.4 77 1026.8
12:18 16.4 12.4 77 1026.6
12:38 16.5 12.5 77 1026.4
12:48 16.6 12.6 77 1026.2
13:03 16.6 12.6 77 1026
13:13 16.7 12.5 76 1025.9
13:24 16.8 12.6 76 1025.8
13:43 16.8 12.6 76 1025.4
13:59 16.9 12.4 75 1025.2
14:19 17 12.7 76 1025
14:29 17.1 12.8 76 1024.9
14:44 17.2 12.7 75 1024.8
14:54 17.2 12.9 76 1024.8
15:04 17.2 12.9 76 1024.7
15:15 17.3 13 76 1024.6
15:25 17.3 13.2 77 1024.6
15:34 17.4 13.7 79 1024.6
15:45 17.5 13.6 78 1024.6
15:55 17.5 13.4 77 1024.6
16:05 17.6 13.3 76 1024.6
16:15 17.5 13 75 1024.5
16:25 17.5 13.2 76 1024.5
16:35 17.4 13.3 77 1024.5

DAY STATISTIC

2020-01-27
TEMPERATURE
AVERAGE
16.0
HIGH
17.6
16:05
LOW
15.3
05:51
PRESSURE
AVERAGE
1025.8
HIGH
1027.1
11:27
LOW
1024.5
16:15
DEWPOINT
AVERAGE
11.6
HIGH
13.7
15:34
LOW
10.7
05:51
HUMIDITY
AVERAGE
75
HIGH
80
10:46
LOW
74
00:08
TEMPERATURE (°C)
LOW
15.3
HIGH
17.6
AVERAGE
16.0
PRESSURE (hpa)
LOW
1024.5
HIGH
1027.1
AVERAGE
1025.8
DEVICE